createdAt,value
2019-02-27T00:00:43.942Z,99.99
2019-02-27T00:01:43.627Z,99.99
2019-02-27T00:02:43.617Z,99.99
2019-02-27T00:03:43.617Z,99.99
2019-02-27T00:04:43.602Z,99.99
2019-02-27T00:05:43.566Z,99.99
2019-02-27T00:06:47.695Z,99.99
2019-02-27T00:07:43.566Z,99.99
2019-02-27T00:08:43.542Z,99.99
2019-02-27T00:09:43.559Z,99.99
2019-02-27T00:10:43.530Z,99.99
2019-02-27T00:11:46.717Z,99.99
2019-02-27T00:12:43.499Z,99.99
2019-02-27T00:13:43.511Z,99.99
2019-02-27T00:14:43.476Z,99.99
2019-02-27T00:15:43.471Z,99.99
2019-02-27T00:16:44.610Z,99.99
2019-02-27T00:17:43.457Z,99.99
2019-02-27T00:18:43.455Z,99.99
2019-02-27T00:19:43.427Z,99.99
2019-02-27T00:20:43.433Z,99.99
2019-02-27T00:21:44.180Z,99.99
2019-02-27T00:22:43.401Z,99.99
2019-02-27T00:23:43.391Z,99.99
2019-02-27T00:24:43.400Z,99.99
2019-02-27T00:25:43.379Z,99.99
2019-02-27T00:26:43.363Z,99.99
2019-02-27T00:27:43.350Z,99.99
2019-02-27T00:28:43.343Z,99.99
2019-02-27T00:29:43.339Z,99.99
2019-02-27T00:30:43.318Z,99.99
2019-02-27T00:31:46.090Z,99.99
2019-02-27T00:32:43.297Z,99.99
2019-02-27T00:33:43.293Z,99.99
2019-02-27T00:34:43.286Z,99.99
2019-02-27T00:35:43.269Z,99.99
2019-02-27T00:36:45.074Z,99.99
2019-02-27T00:37:43.240Z,99.99
2019-02-27T00:38:43.244Z,99.99
2019-02-27T00:39:43.227Z,99.99
2019-02-27T00:40:43.222Z,99.99
2019-02-27T00:41:46.003Z,99.99
2019-02-27T00:42:43.201Z,99.99
2019-02-27T00:43:43.191Z,99.99
2019-02-27T00:44:43.206Z,99.99
2019-02-27T00:45:43.167Z,99.99
2019-02-27T00:46:46.096Z,99.99
2019-02-27T00:47:43.151Z,99.99
2019-02-27T00:48:43.137Z,99.99
2019-02-27T00:49:43.134Z,99.99
2019-02-27T00:50:43.143Z,99.99
2019-02-27T00:51:44.864Z,99.99
2019-02-27T00:52:43.094Z,99.99
2019-02-27T00:53:43.095Z,99.99
2019-02-27T00:54:43.083Z,99.99
2019-02-27T00:55:43.091Z,99.99
2019-02-27T00:56:45.065Z,99.99
2019-02-27T00:57:43.045Z,99.99
2019-02-27T00:58:43.042Z,99.99
2019-02-27T00:59:43.025Z,99.99
2019-02-27T01:00:43.018Z,99.99
2019-02-27T01:01:47.222Z,99.99
2019-02-27T01:02:43.010Z,99.99
2019-02-27T01:03:42.993Z,99.99
2019-02-27T01:04:42.978Z,99.99
2019-02-27T01:05:42.973Z,99.99
2019-02-27T01:06:45.026Z,99.99
2019-02-27T01:07:42.951Z,99.99
2019-02-27T01:08:42.929Z,99.99
2019-02-27T01:09:42.923Z,99.99
2019-02-27T01:10:45.282Z,99.99
2019-02-27T01:11:42.899Z,99.99
2019-02-27T01:12:42.897Z,99.99
2019-02-27T01:13:42.887Z,99.99
2019-02-27T01:14:42.876Z,99.99
2019-02-27T01:15:44.671Z,99.99
2019-02-27T01:16:42.856Z,99.99
2019-02-27T01:17:42.840Z,99.99
2019-02-27T01:18:42.827Z,99.99
2019-02-27T01:19:43.108Z,99.99
2019-02-27T01:20:45.647Z,99.99
2019-02-27T01:21:42.803Z,99.99
2019-02-27T01:22:42.794Z,99.99
2019-02-27T01:23:44.687Z,99.99
2019-02-27T01:24:42.770Z,99.99
2019-02-27T01:25:42.766Z,99.99
2019-02-27T01:26:42.753Z,99.99
2019-02-27T01:27:42.742Z,99.99
2019-02-27T01:28:45.493Z,99.99
2019-02-27T01:29:42.716Z,99.99
2019-02-27T01:30:42.706Z,99.99
2019-02-27T01:31:42.695Z,99.99
2019-02-27T01:32:42.690Z,99.99
2019-02-27T01:33:42.681Z,99.99
2019-02-27T01:34:44.443Z,99.99
2019-02-27T01:35:42.658Z,99.99
2019-02-27T01:36:42.644Z,99.99
2019-02-27T01:37:42.634Z,99.99
2019-02-27T01:38:42.628Z,99.99
2019-02-27T01:39:44.067Z,99.99
2019-02-27T01:40:42.604Z,99.99
2019-02-27T01:41:42.600Z,99.99
2019-02-27T01:42:42.581Z,99.99
2019-02-27T01:43:42.572Z,99.99
2019-02-27T01:44:43.991Z,99.99
2019-02-27T01:45:42.562Z,99.99
2019-02-27T01:46:42.558Z,99.99
2019-02-27T01:47:42.533Z,99.99
2019-02-27T01:48:43.590Z,99.99
2019-02-27T01:49:42.505Z,99.99
2019-02-27T01:50:42.512Z,99.99
2019-02-27T01:51:42.488Z,99.99
2019-02-27T01:52:42.479Z,99.99
2019-02-27T01:53:42.470Z,99.99
2019-02-27T01:54:42.453Z,99.99
2019-02-27T01:55:42.445Z,99.99
2019-02-27T01:56:42.439Z,99.99
2019-02-27T01:57:42.431Z,99.99
2019-02-27T01:58:44.279Z,99.99
2019-02-27T01:59:42.397Z,99.99
2019-02-27T02:00:42.392Z,99.99
2019-02-27T02:01:42.384Z,99.99
2019-02-27T02:02:42.383Z,99.99
2019-02-27T02:03:42.360Z,99.99
2019-02-27T02:04:42.353Z,99.99
2019-02-27T02:05:42.340Z,99.99
2019-02-27T02:06:42.333Z,99.99
2019-02-27T02:07:42.330Z,99.99
2019-02-27T02:08:42.309Z,99.99
2019-02-27T02:09:42.296Z,99.99
2019-02-27T02:10:42.287Z,99.99
2019-02-27T02:11:42.295Z,99.99
2019-02-27T02:12:42.288Z,99.99
2019-02-27T02:13:42.261Z,99.99
2019-02-27T02:14:42.255Z,99.99
2019-02-27T02:15:42.264Z,99.99
2019-02-27T02:16:42.224Z,99.99
2019-02-27T02:17:42.215Z,99.99
2019-02-27T02:18:42.203Z,99.99
2019-02-27T02:19:42.184Z,99.99
2019-02-27T02:20:42.187Z,99.99
2019-02-27T02:21:42.164Z,99.99
2019-02-27T02:22:42.156Z,99.99
2019-02-27T02:23:42.171Z,99.99
2019-02-27T02:24:42.166Z,99.99
2019-02-27T02:25:42.127Z,99.99
2019-02-27T02:26:42.109Z,99.99
2019-02-27T02:27:42.175Z,99.99
2019-02-27T02:28:42.107Z,99.99
2019-02-27T02:29:42.086Z,99.99
2019-02-27T02:30:42.074Z,99.99
2019-02-27T02:31:42.617Z,99.99
2019-02-27T02:32:42.050Z,99.99
2019-02-27T02:33:42.040Z,99.99
2019-02-27T02:34:42.032Z,99.99
2019-02-27T02:35:42.026Z,99.99
2019-02-27T02:36:42.010Z,99.99
2019-02-27T02:37:41.995Z,99.99
2019-02-27T02:38:42.007Z,99.99
2019-02-27T02:39:41.978Z,99.99
2019-02-27T02:40:41.966Z,99.99
2019-02-27T02:41:46.818Z,99.99
2019-02-27T02:42:41.949Z,99.99
2019-02-27T02:43:42.091Z,99.99
2019-02-27T02:44:41.919Z,99.99
2019-02-27T02:45:41.911Z,99.99
2019-02-27T02:46:45.322Z,99.99
2019-02-27T02:47:41.884Z,99.99
2019-02-27T02:48:41.886Z,99.99
2019-02-27T02:49:42.519Z,99.99
2019-02-27T02:50:41.859Z,99.99
2019-02-27T02:51:41.846Z,99.99
2019-02-27T02:52:41.833Z,99.99
2019-02-27T02:53:41.819Z,99.99
2019-02-27T02:54:41.845Z,99.99
2019-02-27T02:55:47.627Z,99.99
2019-02-27T02:56:41.795Z,99.99
2019-02-27T02:57:41.777Z,99.99
2019-02-27T02:58:47.280Z,99.99
2019-02-27T02:59:41.759Z,99.99
2019-02-27T03:00:41.770Z,99.99
2019-02-27T03:01:41.740Z,99.99
2019-02-27T03:02:41.724Z,99.99
2019-02-27T03:03:41.751Z,99.99
2019-02-27T03:04:47.971Z,99.99
2019-02-27T03:05:41.707Z,99.99
2019-02-27T03:06:41.704Z,99.99
2019-02-27T03:07:44.634Z,99.99
2019-02-27T03:08:41.665Z,99.99
2019-02-27T03:09:41.648Z,99.99
2019-02-27T03:10:42.877Z,99.99
2019-02-27T03:11:41.634Z,99.99
2019-02-27T03:12:41.619Z,99.99
2019-02-27T03:13:42.718Z,99.99
2019-02-27T03:14:41.594Z,99.99
2019-02-27T03:15:41.592Z,99.99
2019-02-27T03:16:42.391Z,99.99
2019-02-27T03:17:41.559Z,99.99
2019-02-27T03:18:41.552Z,99.99
2019-02-27T03:19:42.517Z,99.99
2019-02-27T03:20:41.526Z,99.99
2019-02-27T03:21:41.515Z,99.99
2019-02-27T03:22:41.824Z,99.99
2019-02-27T03:23:41.495Z,99.99
2019-02-27T03:24:41.497Z,99.99
2019-02-27T03:25:41.943Z,99.99
2019-02-27T03:26:41.460Z,99.99
2019-02-27T03:27:41.456Z,99.99
2019-02-27T03:28:41.798Z,99.99
2019-02-27T03:29:41.437Z,99.99
2019-02-27T03:30:41.419Z,99.99
2019-02-27T03:31:41.406Z,99.99
2019-02-27T03:32:43.485Z,99.99
2019-02-27T03:33:41.388Z,99.99
2019-02-27T03:34:48.242Z,99.99
2019-02-27T03:35:41.370Z,99.99
2019-02-27T03:36:41.346Z,99.99
2019-02-27T03:37:48.088Z,99.99
2019-02-27T03:38:41.344Z,99.99
2019-02-27T03:39:41.319Z,99.99
2019-02-27T03:40:41.305Z,99.99
2019-02-27T03:41:41.296Z,99.99
2019-02-27T03:42:41.284Z,99.99
2019-02-27T03:43:45.648Z,99.99
2019-02-27T03:44:41.263Z,99.99
2019-02-27T03:45:41.261Z,99.99
2019-02-27T03:46:41.986Z,99.99
2019-02-27T03:47:41.247Z,99.99
2019-02-27T03:48:41.219Z,99.99
2019-02-27T03:49:41.208Z,99.99
2019-02-27T03:50:41.198Z,99.99
2019-02-27T03:51:41.185Z,99.99
2019-02-27T03:52:41.183Z,99.99
2019-02-27T03:53:43.230Z,99.99
2019-02-27T03:54:41.151Z,99.99
2019-02-27T03:55:41.145Z,99.99
2019-02-27T03:56:43.923Z,99.99
2019-02-27T03:57:41.120Z,99.99
2019-02-27T03:58:41.105Z,99.99
2019-02-27T03:59:42.475Z,99.99
2019-02-27T04:00:42.120Z,99.99
2019-02-27T04:01:41.081Z,99.99
2019-02-27T04:02:42.195Z,99.99
2019-02-27T04:03:41.054Z,99.99
2019-02-27T04:04:41.046Z,99.99
2019-02-27T04:05:43.638Z,99.99
2019-02-27T04:06:41.027Z,99.99
2019-02-27T04:07:41.032Z,99.99
2019-02-27T04:08:44.761Z,99.99
2019-02-27T04:09:41.011Z,99.99
2019-02-27T04:10:40.977Z,99.99
2019-02-27T04:11:42.630Z,99.99
2019-02-27T04:12:40.955Z,99.99
2019-02-27T04:13:40.949Z,99.99
2019-02-27T04:14:42.280Z,99.99
2019-02-27T04:15:40.942Z,99.99
2019-02-27T04:16:40.907Z,99.99
2019-02-27T04:17:40.900Z,99.99
2019-02-27T04:18:40.889Z,99.99
2019-02-27T04:19:40.878Z,99.99
2019-02-27T04:20:40.870Z,99.99
2019-02-27T04:21:40.849Z,99.99
2019-02-27T04:22:40.844Z,99.99
2019-02-27T04:23:40.832Z,99.99
2019-02-27T04:24:40.822Z,99.99
2019-02-27T04:25:40.809Z,99.99
2019-02-27T04:26:41.923Z,99.99
2019-02-27T04:27:40.796Z,99.99
2019-02-27T04:28:40.769Z,99.99
2019-02-27T04:29:41.739Z,99.99
2019-02-27T04:30:40.755Z,99.99
2019-02-27T04:31:40.747Z,99.99
2019-02-27T04:32:40.741Z,99.99
2019-02-27T04:33:40.722Z,99.99
2019-02-27T04:34:40.702Z,99.99
2019-02-27T04:35:40.696Z,99.99
2019-02-27T04:36:40.691Z,99.99
2019-02-27T04:37:40.679Z,99.99
2019-02-27T04:38:40.669Z,99.99
2019-02-27T04:39:40.650Z,99.99
2019-02-27T04:40:41.753Z,99.99
2019-02-27T04:41:40.623Z,99.99
2019-02-27T04:42:40.609Z,99.99
2019-02-27T04:43:40.604Z,99.99
2019-02-27T04:44:40.600Z,99.99
2019-02-27T04:45:40.587Z,99.99
2019-02-27T04:46:40.580Z,99.99
2019-02-27T04:47:40.563Z,99.99
2019-02-27T04:48:40.562Z,99.99
2019-02-27T04:49:40.536Z,99.99
2019-02-27T04:50:41.739Z,99.99
2019-02-27T04:51:40.515Z,99.99
2019-02-27T04:52:40.504Z,99.99
2019-02-27T04:53:40.867Z,99.99
2019-02-27T04:54:41.686Z,99.99
2019-02-27T04:55:40.471Z,99.99
2019-02-27T04:56:40.461Z,99.99
2019-02-27T04:57:40.453Z,99.99
2019-02-27T04:58:42.743Z,99.99
2019-02-27T04:59:40.428Z,99.99
2019-02-27T05:00:40.413Z,99.99
2019-02-27T05:01:40.395Z,99.99
2019-02-27T05:02:40.398Z,99.99
2019-02-27T05:03:40.382Z,99.99
2019-02-27T05:04:40.376Z,99.99
2019-02-27T05:05:41.401Z,99.99
2019-02-27T05:06:40.346Z,99.99
2019-02-27T05:07:40.339Z,99.99
2019-02-27T05:08:40.332Z,99.99
2019-02-27T05:09:40.315Z,99.99
2019-02-27T05:10:40.738Z,99.99
2019-02-27T05:11:40.293Z,99.99
2019-02-27T05:12:40.276Z,99.99
2019-02-27T05:13:40.262Z,99.99
2019-02-27T05:14:40.251Z,99.99
2019-02-27T05:15:40.243Z,99.99
2019-02-27T05:16:40.245Z,99.99
2019-02-27T05:17:40.221Z,99.99
2019-02-27T05:18:40.224Z,99.99
2019-02-27T05:19:40.213Z,99.99
2019-02-27T05:20:40.203Z,99.99
2019-02-27T05:21:40.189Z,99.99
2019-02-27T05:22:40.162Z,99.99
2019-02-27T05:23:40.158Z,99.99
2019-02-27T05:24:41.006Z,99.99
2019-02-27T05:25:40.162Z,99.99
2019-02-27T05:26:40.129Z,99.99
2019-02-27T05:27:40.099Z,99.99
2019-02-27T05:28:40.103Z,99.99
2019-02-27T05:29:40.086Z,99.99
2019-02-27T05:30:40.074Z,99.99
2019-02-27T05:31:40.062Z,99.99
2019-02-27T05:32:40.060Z,99.99
2019-02-27T05:33:40.037Z,99.99
2019-02-27T05:34:40.030Z,99.99
2019-02-27T05:35:40.027Z,99.99
2019-02-27T05:36:40.007Z,99.99
2019-02-27T05:37:40.009Z,99.99
2019-02-27T05:38:41.061Z,99.99
2019-02-27T05:39:39.966Z,99.99
2019-02-27T05:40:39.967Z,99.99
2019-02-27T05:41:39.944Z,99.99
2019-02-27T05:42:39.937Z,99.99
2019-02-27T05:43:39.933Z,99.99
2019-02-27T05:44:39.925Z,99.99
2019-02-27T05:45:39.903Z,99.99
2019-02-27T05:46:39.886Z,99.99
2019-02-27T05:47:44.810Z,99.99
2019-02-27T05:48:41.014Z,99.99
2019-02-27T05:49:39.962Z,99.99
2019-02-27T05:50:39.867Z,99.99
2019-02-27T05:51:39.840Z,99.99
2019-02-27T05:52:39.836Z,99.99
2019-02-27T05:53:39.831Z,99.99
2019-02-27T05:54:39.804Z,99.99
2019-02-27T05:55:39.824Z,99.99
2019-02-27T05:56:39.786Z,99.99
2019-02-27T05:57:39.768Z,99.99
2019-02-27T05:58:39.769Z,99.99
2019-02-27T05:59:39.759Z,99.99
2019-02-27T06:00:39.737Z,99.99
2019-02-27T06:01:39.731Z,99.99
2019-02-27T06:02:41.909Z,99.99
2019-02-27T06:03:39.702Z,99.99
2019-02-27T06:04:39.691Z,99.99
2019-02-27T06:05:49.265Z,99.99
2019-02-27T06:06:39.668Z,99.99
2019-02-27T06:07:39.646Z,99.99
2019-02-27T06:08:39.644Z,99.99
2019-02-27T06:09:41.408Z,99.99
2019-02-27T06:10:39.634Z,99.99
2019-02-27T06:11:39.608Z,99.99
2019-02-27T06:12:40.752Z,99.99
2019-02-27T06:13:51.184Z,99.99
2019-02-27T06:14:39.572Z,99.99
2019-02-27T06:15:39.590Z,99.99
2019-02-27T06:16:45.599Z,99.99
2019-02-27T06:17:43.292Z,99.99
2019-02-27T06:18:39.530Z,99.99
2019-02-27T06:19:39.555Z,99.99
2019-02-27T06:20:41.946Z,99.99
2019-02-27T06:21:39.503Z,99.99
2019-02-27T06:22:39.495Z,99.99
2019-02-27T06:23:39.499Z,99.99
2019-02-27T06:24:39.460Z,99.99
2019-02-27T06:25:39.447Z,99.99
2019-02-27T06:26:39.438Z,99.99
2019-02-27T06:27:39.941Z,99.99
2019-02-27T06:28:39.409Z,99.99
2019-02-27T06:29:39.405Z,99.99
2019-02-27T06:30:39.401Z,99.99
2019-02-27T06:31:39.563Z,99.99
2019-02-27T06:32:39.379Z,99.99
2019-02-27T06:33:39.358Z,99.99
2019-02-27T06:34:39.347Z,99.99
2019-02-27T06:35:39.334Z,99.99
2019-02-27T06:36:42.757Z,99.99
2019-02-27T06:37:39.325Z,99.99
2019-02-27T06:38:39.300Z,99.99
2019-02-27T06:39:39.286Z,99.99
2019-02-27T06:40:42.076Z,99.99
2019-02-27T06:41:39.908Z,99.99
2019-02-27T06:42:39.260Z,99.99
2019-02-27T06:43:39.243Z,99.99
2019-02-27T06:44:39.874Z,99.99
2019-02-27T06:45:39.222Z,99.99
2019-02-27T06:46:39.208Z,99.99
2019-02-27T06:47:39.200Z,99.99
2019-02-27T06:48:43.307Z,99.99
2019-02-27T06:49:39.188Z,99.99
2019-02-27T06:50:39.164Z,99.99
2019-02-27T06:51:39.160Z,99.99
2019-02-27T06:52:40.146Z,99.99
2019-02-27T06:53:39.150Z,99.99
2019-02-27T06:54:39.128Z,99.99
2019-02-27T06:55:39.100Z,99.99
2019-02-27T06:56:39.095Z,99.99
2019-02-27T06:57:41.328Z,99.99
2019-02-27T06:58:39.079Z,99.99
2019-02-27T06:59:39.060Z,99.99
2019-02-27T07:00:39.049Z,99.99
2019-02-27T07:01:39.044Z,99.99
2019-02-27T07:02:39.025Z,99.99
2019-02-27T07:03:39.025Z,99.99
2019-02-27T07:04:39.656Z,99.99
2019-02-27T07:05:38.994Z,99.99
2019-02-27T07:06:38.983Z,99.99
2019-02-27T07:07:38.963Z,99.99
2019-02-27T07:08:38.962Z,99.99
2019-02-27T07:09:38.949Z,99.99
2019-02-27T07:10:38.930Z,99.99
2019-02-27T07:11:38.927Z,99.99
2019-02-27T07:12:38.907Z,99.99
2019-02-27T07:13:38.914Z,99.99
2019-02-27T07:14:39.282Z,99.99
2019-02-27T07:15:38.886Z,99.99
2019-02-27T07:16:38.868Z,99.99
2019-02-27T07:17:38.862Z,99.99
2019-02-27T07:18:41.489Z,99.99
2019-02-27T07:19:38.834Z,99.99
2019-02-27T07:20:38.827Z,99.99
2019-02-27T07:21:38.832Z,99.99
2019-02-27T07:22:38.806Z,99.99
2019-02-27T07:23:38.792Z,99.99
2019-02-27T07:24:38.797Z,99.99
2019-02-27T07:25:41.915Z,99.99
2019-02-27T07:26:38.773Z,99.99
2019-02-27T07:27:38.752Z,99.99
2019-02-27T07:28:43.092Z,99.99
2019-02-27T07:29:38.759Z,99.99
2019-02-27T07:30:39.884Z,99.99
2019-02-27T07:31:38.701Z,99.99
2019-02-27T07:32:38.691Z,99.99
2019-02-27T07:33:40.691Z,99.99
2019-02-27T07:34:38.676Z,99.99
2019-02-27T07:35:38.663Z,99.99
2019-02-27T07:36:39.177Z,99.99
2019-02-27T07:37:38.639Z,99.99
2019-02-27T07:38:39.528Z,99.99
2019-02-27T07:39:38.615Z,99.99
2019-02-27T07:40:42.726Z,99.99
2019-02-27T07:41:38.597Z,99.99
2019-02-27T07:42:38.583Z,99.99
2019-02-27T07:43:38.577Z,99.99
2019-02-27T07:44:38.585Z,99.99
2019-02-27T07:45:38.554Z,99.99
2019-02-27T07:46:38.557Z,99.99
2019-02-27T07:47:38.540Z,99.99
2019-02-27T07:48:38.524Z,99.99
2019-02-27T07:49:38.514Z,99.99
2019-02-27T07:50:38.506Z,99.99
2019-02-27T07:51:38.496Z,99.99
2019-02-27T07:52:38.514Z,99.99
2019-02-27T07:53:38.482Z,99.99
2019-02-27T07:54:38.467Z,99.99
2019-02-27T07:55:38.463Z,99.99
2019-02-27T07:56:38.439Z,99.99
2019-02-27T07:57:38.443Z,99.99
2019-02-27T07:58:38.418Z,99.99
2019-02-27T07:59:38.787Z,99.99
2019-02-27T08:00:38.406Z,99.99
2019-02-27T08:01:43.776Z,99.99
2019-02-27T08:02:38.379Z,99.99
2019-02-27T08:03:38.384Z,99.99
2019-02-27T08:04:38.368Z,99.99
2019-02-27T08:05:38.359Z,99.99
2019-02-27T08:06:38.477Z,99.99
2019-02-27T08:07:38.342Z,99.99
2019-02-27T08:08:38.326Z,99.99
2019-02-27T08:09:38.319Z,99.99
2019-02-27T08:10:38.310Z,99.99
2019-02-27T08:11:38.299Z,99.99
2019-02-27T08:12:38.290Z,99.99
2019-02-27T08:13:38.287Z,99.99
2019-02-27T08:14:38.273Z,99.99
2019-02-27T08:15:38.260Z,99.99
2019-02-27T08:16:38.255Z,99.99
2019-02-27T08:17:38.780Z,99.99
2019-02-27T08:18:38.338Z,99.99
2019-02-27T08:19:38.242Z,99.99
2019-02-27T08:20:38.222Z,99.99
2019-02-27T08:21:38.214Z,99.99
2019-02-27T08:22:38.203Z,99.50
2019-02-27T08:23:38.196Z,99.88
2019-02-27T08:24:38.186Z,99.60
2019-02-27T08:25:38.177Z,99.22
2019-02-27T08:26:38.171Z,99.12
2019-02-27T08:27:38.156Z,99.41
2019-02-27T08:28:38.150Z,98.93
2019-02-27T08:29:38.135Z,99.22
2019-02-27T08:30:38.135Z,99.60
2019-02-27T08:31:38.121Z,98.55
2019-02-27T08:32:38.112Z,98.88
2019-02-27T08:33:38.107Z,97.93
2019-02-27T08:34:38.095Z,98.55
2019-02-27T08:35:38.094Z,98.98
2019-02-27T08:36:38.080Z,98.69
2019-02-27T08:37:38.070Z,98.69
2019-02-27T08:38:38.064Z,98.88
2019-02-27T08:39:38.058Z,98.50
2019-02-27T08:40:38.041Z,98.60
2019-02-27T08:41:38.033Z,98.50
2019-02-27T08:42:40.377Z,98.79
2019-02-27T08:43:38.018Z,97.93
2019-02-27T08:44:38.017Z,97.93
2019-02-27T08:45:37.999Z,97.27
2019-02-27T08:46:37.995Z,97.08
2019-02-27T08:47:37.987Z,96.79
2019-02-27T08:48:37.975Z,96.51
2019-02-27T08:49:37.971Z,96.70
2019-02-27T08:50:37.958Z,97.08
2019-02-27T08:51:39.799Z,96.31
2019-02-27T08:52:37.942Z,96.60
2019-02-27T08:53:37.936Z,96.03
2019-02-27T08:54:37.934Z,96.22
2019-02-27T08:55:39.202Z,95.08
2019-02-27T08:56:37.916Z,95.36
2019-02-27T08:57:37.904Z,95.17
2019-02-27T08:58:37.898Z,95.51
2019-02-27T08:59:39.987Z,95.32
2019-02-27T09:00:37.870Z,94.74
2019-02-27T09:01:37.952Z,94.37
2019-02-27T09:02:39.650Z,94.27
2019-02-27T09:03:37.853Z,93.41
2019-02-27T09:04:37.842Z,93.89
2019-02-27T09:05:37.832Z,93.79
2019-02-27T09:06:37.824Z,93.79
2019-02-27T09:07:37.833Z,93.03
2019-02-27T09:08:37.811Z,93.03
2019-02-27T09:09:37.806Z,91.99
2019-02-27T09:10:37.798Z,92.08
2019-02-27T09:11:40.113Z,92.55
2019-02-27T09:12:37.780Z,91.74
2019-02-27T09:13:37.781Z,91.74
2019-02-27T09:14:37.761Z,91.94
2019-02-27T09:15:37.752Z,91.17
2019-02-27T09:16:37.748Z,91.27
2019-02-27T09:17:37.747Z,90.41
2019-02-27T09:18:37.731Z,90.22
2019-02-27T09:19:37.726Z,90.22
2019-02-27T09:20:37.706Z,90.41
2019-02-27T09:21:37.703Z,90.60
2019-02-27T09:22:37.701Z,89.55
2019-02-27T09:23:38.573Z,89.26
2019-02-27T09:24:37.684Z,89.17
2019-02-27T09:25:37.682Z,88.60
2019-02-27T09:26:37.668Z,88.26
2019-02-27T09:27:37.653Z,87.79
2019-02-27T09:28:37.652Z,87.69
2019-02-27T09:29:37.639Z,87.60
2019-02-27T09:30:37.630Z,87.31
2019-02-27T09:31:38.456Z,87.40
2019-02-27T09:32:37.623Z,87.02
2019-02-27T09:33:39.078Z,86.65
2019-02-27T09:34:37.629Z,86.55
2019-02-27T09:35:38.772Z,85.97
2019-02-27T09:36:37.592Z,85.78
2019-02-27T09:37:39.400Z,85.21
2019-02-27T09:38:37.573Z,85.50
2019-02-27T09:39:37.569Z,85.54
2019-02-27T09:40:38.902Z,85.35
2019-02-27T09:41:37.558Z,85.16
2019-02-27T09:42:37.540Z,84.59
2019-02-27T09:43:37.547Z,84.20
2019-02-27T09:44:37.547Z,84.11
2019-02-27T09:45:37.530Z,83.06
2019-02-27T09:46:37.518Z,82.49
2019-02-27T09:47:37.511Z,82.49
2019-02-27T09:48:37.505Z,82.43
2019-02-27T09:49:37.965Z,80.68
2019-02-27T09:50:37.490Z,79.10
2019-02-27T09:51:37.483Z,78.62
2019-02-27T09:52:37.470Z,78.43
2019-02-27T09:53:37.501Z,78.72
2019-02-27T09:54:37.464Z,78.05
2019-02-27T09:55:37.452Z,78.62
2019-02-27T09:56:37.443Z,77.47
2019-02-27T09:57:37.440Z,77.67
2019-02-27T09:58:37.432Z,76.90
2019-02-27T09:59:37.425Z,77.19
2019-02-27T10:00:37.417Z,77.09
2019-02-27T10:01:37.407Z,77.19
2019-02-27T10:02:37.403Z,77.23
2019-02-27T10:03:37.398Z,77.32
2019-02-27T10:04:37.390Z,77.13
2019-02-27T10:05:37.549Z,76.56
2019-02-27T10:06:37.377Z,75.98
2019-02-27T10:07:37.364Z,74.93
2019-02-27T10:08:37.361Z,75.13
2019-02-27T10:09:37.359Z,74.27
2019-02-27T10:10:37.343Z,74.27
2019-02-27T10:11:37.360Z,74.11
2019-02-27T10:12:37.337Z,73.35
2019-02-27T10:13:37.935Z,73.16
2019-02-27T10:14:37.316Z,73.07
2019-02-27T10:15:37.323Z,72.49
2019-02-27T10:16:37.320Z,71.53
2019-02-27T10:17:37.303Z,70.96
2019-02-27T10:18:37.289Z,70.87
2019-02-27T10:19:37.292Z,70.96
2019-02-27T10:20:38.036Z,70.87
2019-02-27T10:21:37.280Z,70.58
2019-02-27T10:22:37.273Z,71.00
2019-02-27T10:23:37.269Z,69.85
2019-02-27T10:24:37.639Z,69.18
2019-02-27T10:25:37.251Z,68.32
2019-02-27T10:26:37.250Z,68.51
2019-02-27T10:27:37.241Z,68.23
2019-02-27T10:28:39.603Z,68.32
2019-02-27T10:29:37.225Z,68.70
2019-02-27T10:30:37.239Z,68.04
2019-02-27T10:31:37.215Z,67.94
2019-02-27T10:32:37.285Z,67.75
2019-02-27T10:33:37.203Z,67.75
2019-02-27T10:34:37.208Z,66.70
2019-02-27T10:35:37.202Z,66.99
2019-02-27T10:36:39.185Z,66.60
2019-02-27T10:37:37.223Z,66.35
2019-02-27T10:38:40.244Z,66.25
2019-02-27T10:39:37.651Z,66.54
2019-02-27T10:40:37.162Z,65.77
2019-02-27T10:41:37.160Z,65.58
2019-02-27T10:42:37.163Z,65.01
2019-02-27T10:43:37.152Z,64.91
2019-02-27T10:44:37.138Z,64.72
2019-02-27T10:45:37.136Z,63.57
2019-02-27T10:46:37.126Z,64.25
2019-02-27T10:47:39.818Z,64.34
2019-02-27T10:48:37.121Z,63.39
2019-02-27T10:49:38.312Z,63.32
2019-02-27T10:50:37.103Z,63.19
2019-02-27T10:51:37.130Z,63.13
2019-02-27T10:52:37.115Z,62.74
2019-02-27T10:53:37.096Z,62.55
2019-02-27T10:54:39.339Z,62.08
2019-02-27T10:55:37.101Z,62.17
2019-02-27T10:56:37.078Z,62.08
2019-02-27T10:57:38.539Z,61.79
2019-02-27T10:58:37.057Z,60.83
2019-02-27T10:59:37.058Z,60.93
2019-02-27T11:00:37.042Z,60.74
2019-02-27T11:01:37.084Z,61.15
2019-02-27T11:02:37.063Z,60.86
2019-02-27T11:03:37.025Z,60.67
2019-02-27T11:04:38.955Z,60.74
2019-02-27T11:05:37.022Z,60.93
2019-02-27T11:06:37.707Z,61.05
2019-02-27T11:07:37.018Z,60.19
2019-02-27T11:08:37.006Z,60.00
2019-02-27T11:09:38.365Z,58.76
2019-02-27T11:10:36.991Z,58.95
2019-02-27T11:11:36.984Z,58.18
2019-02-27T11:12:36.982Z,58.28
2019-02-27T11:13:36.978Z,57.99
2019-02-27T11:14:36.975Z,58.09
2019-02-27T11:15:40.851Z,57.80
2019-02-27T11:16:36.965Z,58.09
2019-02-27T11:17:36.959Z,57.61
2019-02-27T11:18:36.955Z,57.51
2019-02-27T11:19:36.951Z,56.39
2019-02-27T11:20:36.945Z,56.97
2019-02-27T11:21:36.938Z,56.97
2019-02-27T11:22:36.941Z,56.97
2019-02-27T11:23:40.928Z,56.39
2019-02-27T11:24:36.961Z,56.20
2019-02-27T11:25:36.919Z,56.87
2019-02-27T11:26:36.919Z,56.97
2019-02-27T11:27:38.963Z,56.39
2019-02-27T11:28:36.913Z,56.20
2019-02-27T11:29:36.911Z,56.30
2019-02-27T11:30:37.115Z,56.30
2019-02-27T11:31:36.889Z,55.73
2019-02-27T11:32:36.886Z,55.34
2019-02-27T11:33:36.875Z,55.24
2019-02-27T11:34:36.876Z,55.05
2019-02-27T11:35:36.875Z,55.18
2019-02-27T11:36:39.039Z,55.18
2019-02-27T11:37:36.862Z,54.22
2019-02-27T11:38:36.863Z,53.74
2019-02-27T11:39:36.864Z,53.55
2019-02-27T11:40:41.841Z,52.20
2019-02-27T11:41:36.843Z,51.75
2019-02-27T11:42:36.846Z,52.59
2019-02-27T11:43:37.903Z,52.87
2019-02-27T11:44:36.880Z,52.11
2019-02-27T11:45:37.629Z,52.30
2019-02-27T11:46:38.201Z,52.78
2019-02-27T11:47:36.816Z,52.59
2019-02-27T11:48:36.811Z,52.20
2019-02-27T11:49:38.746Z,52.50
2019-02-27T11:50:36.808Z,52.33
2019-02-27T11:51:36.812Z,52.42
2019-02-27T11:52:36.793Z,52.40
2019-02-27T11:53:36.793Z,52.91
2019-02-27T11:54:36.786Z,52.87
2019-02-27T11:55:36.783Z,53.36
2019-02-27T11:56:36.776Z,52.23
2019-02-27T11:57:36.782Z,51.75
2019-02-27T11:58:38.461Z,52.23
2019-02-27T11:59:36.771Z,52.52
2019-02-27T12:00:36.760Z,52.52
2019-02-27T12:01:36.758Z,52.42
2019-02-27T12:02:37.826Z,52.04
2019-02-27T12:03:36.757Z,51.65
2019-02-27T12:04:36.746Z,51.65
2019-02-27T12:05:36.734Z,51.65
2019-02-27T12:06:41.316Z,52.14
2019-02-27T12:07:36.732Z,51.75
2019-02-27T12:08:36.733Z,51.85
2019-02-27T12:09:36.727Z,51.75
2019-02-27T12:10:36.723Z,51.65
2019-02-27T12:11:36.720Z,51.40
2019-02-27T12:12:36.712Z,51.28
2019-02-27T12:13:36.706Z,51.30
2019-02-27T12:14:36.709Z,51.30
2019-02-27T12:15:36.706Z,51.56
2019-02-27T12:16:36.690Z,52.07
2019-02-27T12:17:36.697Z,52.07
2019-02-27T12:18:36.685Z,51.30
2019-02-27T12:19:36.690Z,51.68
2019-02-27T12:20:36.681Z,51.10
2019-02-27T12:21:36.678Z,51.40
2019-02-27T12:22:36.674Z,51.59
2019-02-27T12:23:36.666Z,52.36
2019-02-27T12:24:36.661Z,52.64
2019-02-27T12:25:36.657Z,51.68
2019-02-27T12:26:37.595Z,51.10
2019-02-27T12:27:48.605Z,50.53
2019-02-27T12:28:36.653Z,50.82
2019-02-27T12:29:36.643Z,50.63
2019-02-27T12:30:37.432Z,51.20
2019-02-27T12:31:36.642Z,50.15
2019-02-27T12:32:36.645Z,50.53
2019-02-27T12:33:36.640Z,50.15
2019-02-27T12:34:37.064Z,50.34
2019-02-27T12:35:36.629Z,50.43
2019-02-27T12:36:36.626Z,50.56
2019-02-27T12:37:36.628Z,50.46
2019-02-27T12:38:39.271Z,50.37
2019-02-27T12:39:36.615Z,50.17
2019-02-27T12:40:36.609Z,50.37
2019-02-27T12:41:36.602Z,49.69
2019-02-27T12:42:37.512Z,49.31
2019-02-27T12:43:36.591Z,49.60
2019-02-27T12:44:36.599Z,49.98
2019-02-27T12:45:36.585Z,49.60
2019-02-27T12:46:37.092Z,49.21
2019-02-27T12:47:37.705Z,49.60
2019-02-27T12:48:36.580Z,49.02
2019-02-27T12:49:36.585Z,49.60
2019-02-27T12:50:36.562Z,49.21
2019-02-27T12:51:38.361Z,48.54
2019-02-27T12:52:36.558Z,48.74